sensor_id;sensor_type;location;lat;lon;timestamp;P1;durP1;ratioP1;P2;durP2;ratioP2
46158;SDS011;31888;44.512;26.104;2023-06-14T00:02:07;11.07;;;4.50;;
46158;SDS011;31888;44.512;26.104;2023-06-14T00:04:32;7.75;;;4.05;;
46158;SDS011;31888;44.512;26.104;2023-06-14T00:06:57;5.72;;;3.92;;
46158;SDS011;31888;44.512;26.104;2023-06-14T00:09:22;6.57;;;3.60;;
46158;SDS011;31888;44.512;26.104;2023-06-14T00:11:51;6.03;;;4.35;;
46158;SDS011;31888;44.512;26.104;2023-06-14T00:14:15;4.97;;;3.90;;
46158;SDS011;31888;44.512;26.104;2023-06-14T00:16:40;6.03;;;4.10;;
46158;SDS011;31888;44.512;26.104;2023-06-14T00:19:06;6.80;;;4.18;;
46158;SDS011;31888;44.512;26.104;2023-06-14T00:21:31;5.20;;;3.80;;
46158;SDS011;31888;44.512;26.104;2023-06-14T00:23:57;7.25;;;4.18;;
46158;SDS011;31888;44.512;26.104;2023-06-14T00:26:22;6.05;;;3.90;;
46158;SDS011;31888;44.512;26.104;2023-06-14T00:28:50;7.68;;;4.03;;
46158;SDS011;31888;44.512;26.104;2023-06-14T00:31:15;6.38;;;3.50;;
46158;SDS011;31888;44.512;26.104;2023-06-14T00:33:40;4.80;;;3.80;;
46158;SDS011;31888;44.512;26.104;2023-06-14T00:36:06;7.32;;;4.28;;
46158;SDS011;31888;44.512;26.104;2023-06-14T00:38:31;4.93;;;3.72;;
46158;SDS011;31888;44.512;26.104;2023-06-14T00:40:56;8.15;;;4.53;;
46158;SDS011;31888;44.512;26.104;2023-06-14T00:43:21;7.55;;;3.65;;
46158;SDS011;31888;44.512;26.104;2023-06-14T00:45:47;6.47;;;3.70;;
46158;SDS011;31888;44.512;26.104;2023-06-14T00:48:14;8.73;;;3.65;;
46158;SDS011;31888;44.512;26.104;2023-06-14T00:50:39;7.15;;;4.18;;
46158;SDS011;31888;44.512;26.104;2023-06-14T00:53:04;7.60;;;4.32;;
46158;SDS011;31888;44.512;26.104;2023-06-14T00:55:29;13.38;;;3.60;;
46158;SDS011;31888;44.512;26.104;2023-06-14T00:57:55;8.15;;;4.15;;
46158;SDS011;31888;44.512;26.104;2023-06-14T01:00:20;6.15;;;4.20;;
46158;SDS011;31888;44.512;26.104;2023-06-14T01:02:51;5.07;;;3.70;;
46158;SDS011;31888;44.512;26.104;2023-06-14T01:05:16;6.35;;;4.35;;
46158;SDS011;31888;44.512;26.104;2023-06-14T01:07:46;6.13;;;4.05;;
46158;SDS011;31888;44.512;26.104;2023-06-14T01:10:21;4.95;;;3.53;;
46158;SDS011;31888;44.512;26.104;2023-06-14T01:13:02;6.22;;;3.28;;
46158;SDS011;31888;44.512;26.104;2023-06-14T01:15:31;6.18;;;3.58;;
46158;SDS011;31888;44.512;26.104;2023-06-14T01:17:58;6.13;;;3.60;;
46158;SDS011;31888;44.512;26.104;2023-06-14T01:20:27;5.55;;;3.63;;
46158;SDS011;31888;44.512;26.104;2023-06-14T01:22:55;6.05;;;3.58;;
46158;SDS011;31888;44.512;26.104;2023-06-14T01:25:20;4.70;;;3.50;;
46158;SDS011;31888;44.512;26.104;2023-06-14T01:27:47;5.70;;;3.75;;
46158;SDS011;31888;44.512;26.104;2023-06-14T01:30:13;6.03;;;4.20;;
46158;SDS011;31888;44.512;26.104;2023-06-14T01:32:39;5.32;;;3.33;;
46158;SDS011;31888;44.512;26.104;2023-06-14T01:35:05;7.05;;;3.97;;
46158;SDS011;31888;44.512;26.104;2023-06-14T01:37:31;5.40;;;3.33;;
46158;SDS011;31888;44.512;26.104;2023-06-14T01:39:58;5.93;;;3.95;;
46158;SDS011;31888;44.512;26.104;2023-06-14T01:42:23;6.47;;;3.63;;
46158;SDS011;31888;44.512;26.104;2023-06-14T01:44:49;7.90;;;3.55;;
46158;SDS011;31888;44.512;26.104;2023-06-14T01:47:17;5.40;;;3.63;;
46158;SDS011;31888;44.512;26.104;2023-06-14T01:49:44;8.65;;;4.13;;
46158;SDS011;31888;44.512;26.104;2023-06-14T01:52:11;5.05;;;3.88;;
46158;SDS011;31888;44.512;26.104;2023-06-14T01:54:39;11.07;;;3.90;;
46158;SDS011;31888;44.512;26.104;2023-06-14T01:57:07;6.90;;;3.70;;
46158;SDS011;31888;44.512;26.104;2023-06-14T01:59:33;10.55;;;3.65;;
46158;SDS011;31888;44.512;26.104;2023-06-14T02:01:59;6.28;;;3.78;;
46158;SDS011;31888;44.512;26.104;2023-06-14T02:04:23;6.07;;;4.03;;
46158;SDS011;31888;44.512;26.104;2023-06-14T02:06:51;7.07;;;3.90;;
46158;SDS011;31888;44.512;26.104;2023-06-14T02:09:15;7.78;;;4.25;;
46158;SDS011;31888;44.512;26.104;2023-06-14T02:11:41;8.32;;;3.92;;
46158;SDS011;31888;44.512;26.104;2023-06-14T02:14:07;7.63;;;3.72;;
46158;SDS011;31888;44.512;26.104;2023-06-14T02:16:34;9.65;;;4.65;;
46158;SDS011;31888;44.512;26.104;2023-06-14T02:19:00;7.55;;;4.53;;
46158;SDS011;31888;44.512;26.104;2023-06-14T02:21:25;8.18;;;4.20;;
46158;SDS011;31888;44.512;26.104;2023-06-14T02:23:49;10.02;;;4.30;;
46158;SDS011;31888;44.512;26.104;2023-06-14T02:26:16;7.32;;;4.63;;
46158;SDS011;31888;44.512;26.104;2023-06-14T02:28:41;7.30;;;4.65;;
46158;SDS011;31888;44.512;26.104;2023-06-14T02:31:07;6.72;;;4.10;;
46158;SDS011;31888;44.512;26.104;2023-06-14T02:33:32;6.53;;;4.40;;
46158;SDS011;31888;44.512;26.104;2023-06-14T02:35:58;7.53;;;4.60;;
46158;SDS011;31888;44.512;26.104;2023-06-14T02:38:22;8.27;;;4.07;;
46158;SDS011;31888;44.512;26.104;2023-06-14T02:40:48;9.73;;;4.45;;
46158;SDS011;31888;44.512;26.104;2023-06-14T02:43:15;6.70;;;4.32;;
46158;SDS011;31888;44.512;26.104;2023-06-14T02:45:40;5.07;;;4.28;;
46158;SDS011;31888;44.512;26.104;2023-06-14T02:48:07;8.75;;;4.30;;
46158;SDS011;31888;44.512;26.104;2023-06-14T02:50:31;7.35;;;4.57;;
46158;SDS011;31888;44.512;26.104;2023-06-14T02:52:56;6.68;;;4.55;;
46158;SDS011;31888;44.512;26.104;2023-06-14T02:55:21;9.15;;;4.22;;
46158;SDS011;31888;44.512;26.104;2023-06-14T02:57:46;6.40;;;4.60;;
46158;SDS011;31888;44.512;26.104;2023-06-14T03:00:12;9.32;;;4.47;;
46158;SDS011;31888;44.512;26.104;2023-06-14T03:02:40;6.90;;;4.15;;
46158;SDS011;31888;44.512;26.104;2023-06-14T03:05:08;8.77;;;4.28;;
46158;SDS011;31888;44.512;26.104;2023-06-14T03:07:33;8.48;;;4.13;;
46158;SDS011;31888;44.512;26.104;2023-06-14T03:10:05;9.13;;;4.25;;
46158;SDS011;31888;44.512;26.104;2023-06-14T03:12:30;8.48;;;4.80;;
46158;SDS011;31888;44.512;26.104;2023-06-14T03:14:55;7.35;;;4.30;;
46158;SDS011;31888;44.512;26.104;2023-06-14T03:17:28;5.90;;;4.32;;
46158;SDS011;31888;44.512;26.104;2023-06-14T03:19:58;7.93;;;4.03;;
46158;SDS011;31888;44.512;26.104;2023-06-14T03:22:27;6.07;;;4.38;;
46158;SDS011;31888;44.512;26.104;2023-06-14T03:24:54;9.13;;;4.10;;
46158;SDS011;31888;44.512;26.104;2023-06-14T03:27:19;9.10;;;4.07;;
46158;SDS011;31888;44.512;26.104;2023-06-14T03:29:44;6.78;;;4.38;;
46158;SDS011;31888;44.512;26.104;2023-06-14T03:32:08;8.40;;;4.40;;
46158;SDS011;31888;44.512;26.104;2023-06-14T03:34:37;10.40;;;4.30;;
46158;SDS011;31888;44.512;26.104;2023-06-14T03:37:05;8.55;;;4.43;;
46158;SDS011;31888;44.512;26.104;2023-06-14T03:39:31;6.35;;;4.50;;
46158;SDS011;31888;44.512;26.104;2023-06-14T03:41:56;6.22;;;3.80;;
46158;SDS011;31888;44.512;26.104;2023-06-14T03:44:21;9.60;;;4.03;;
46158;SDS011;31888;44.512;26.104;2023-06-14T03:46:46;8.88;;;4.38;;
46158;SDS011;31888;44.512;26.104;2023-06-14T03:49:11;7.80;;;4.90;;
46158;SDS011;31888;44.512;26.104;2023-06-14T03:51:35;7.05;;;4.97;;
46158;SDS011;31888;44.512;26.104;2023-06-14T03:54:00;9.23;;;4.82;;
46158;SDS011;31888;44.512;26.104;2023-06-14T03:56:49;7.45;;;4.60;;
46158;SDS011;31888;44.512;26.104;2023-06-14T03:59:14;8.52;;;4.28;;
46158;SDS011;31888;44.512;26.104;2023-06-14T04:01:39;8.80;;;4.05;;
46158;SDS011;31888;44.512;26.104;2023-06-14T04:04:11;10.13;;;4.65;;
46158;SDS011;31888;44.512;26.104;2023-06-14T04:06:36;5.55;;;3.85;;
46158;SDS011;31888;44.512;26.104;2023-06-14T04:09:00;6.68;;;4.70;;
46158;SDS011;31888;44.512;26.104;2023-06-14T04:11:25;8.70;;;4.22;;
46158;SDS011;31888;44.512;26.104;2023-06-14T04:13:52;8.10;;;5.30;;
46158;SDS011;31888;44.512;26.104;2023-06-14T04:16:19;8.27;;;4.90;;
46158;SDS011;31888;44.512;26.104;2023-06-14T04:18:44;6.32;;;4.25;;
46158;SDS011;31888;44.512;26.104;2023-06-14T04:21:09;8.65;;;4.32;;
46158;SDS011;31888;44.512;26.104;2023-06-14T04:23:34;6.60;;;4.28;;
46158;SDS011;31888;44.512;26.104;2023-06-14T04:25:59;10.07;;;4.30;;
46158;SDS011;31888;44.512;26.104;2023-06-14T04:28:25;7.95;;;4.78;;
46158;SDS011;31888;44.512;26.104;2023-06-14T04:30:54;7.00;;;4.35;;
46158;SDS011;31888;44.512;26.104;2023-06-14T04:33:18;8.75;;;4.57;;
46158;SDS011;31888;44.512;26.104;2023-06-14T04:35:45;5.97;;;3.72;;
46158;SDS011;31888;44.512;26.104;2023-06-14T04:38:14;5.15;;;4.25;;
46158;SDS011;31888;44.512;26.104;2023-06-14T04:40:40;8.20;;;4.30;;
46158;SDS011;31888;44.512;26.104;2023-06-14T04:43:10;7.60;;;4.53;;
46158;SDS011;31888;44.512;26.104;2023-06-14T04:45:42;12.45;;;4.18;;
46158;SDS011;31888;44.512;26.104;2023-06-14T04:48:11;10.32;;;4.43;;
46158;SDS011;31888;44.512;26.104;2023-06-14T04:50:36;6.63;;;4.10;;
46158;SDS011;31888;44.512;26.104;2023-06-14T04:53:03;9.15;;;4.28;;
46158;SDS011;31888;44.512;26.104;2023-06-14T04:55:30;7.35;;;4.07;;
46158;SDS011;31888;44.512;26.104;2023-06-14T04:57:58;6.47;;;3.80;;
46158;SDS011;31888;44.512;26.104;2023-06-14T05:00:24;8.82;;;4.28;;
46158;SDS011;31888;44.512;26.104;2023-06-14T05:02:49;7.45;;;3.60;;
46158;SDS011;31888;44.512;26.104;2023-06-14T05:05:18;13.60;;;5.07;;
46158;SDS011;31888;44.512;26.104;2023-06-14T05:07:44;7.93;;;4.75;;
46158;SDS011;31888;44.512;26.104;2023-06-14T05:10:09;5.50;;;3.88;;
46158;SDS011;31888;44.512;26.104;2023-06-14T05:12:34;6.60;;;3.90;;
46158;SDS011;31888;44.512;26.104;2023-06-14T05:15:01;9.38;;;4.47;;
46158;SDS011;31888;44.512;26.104;2023-06-14T05:17:26;14.10;;;5.05;;
46158;SDS011;31888;44.512;26.104;2023-06-14T05:19:51;8.45;;;4.60;;
46158;SDS011;31888;44.512;26.104;2023-06-14T05:22:18;7.78;;;4.40;;
46158;SDS011;31888;44.512;26.104;2023-06-14T05:24:43;7.38;;;4.45;;
46158;SDS011;31888;44.512;26.104;2023-06-14T05:27:08;9.27;;;4.03;;
46158;SDS011;31888;44.512;26.104;2023-06-14T05:29:34;12.00;;;4.30;;
46158;SDS011;31888;44.512;26.104;2023-06-14T05:31:59;9.15;;;4.90;;
46158;SDS011;31888;44.512;26.104;2023-06-14T05:34:24;9.15;;;3.97;;
46158;SDS011;31888;44.512;26.104;2023-06-14T05:36:49;11.48;;;3.92;;
46158;SDS011;31888;44.512;26.104;2023-06-14T05:39:15;8.98;;;4.25;;
46158;SDS011;31888;44.512;26.104;2023-06-14T05:41:40;8.63;;;4.55;;
46158;SDS011;31888;44.512;26.104;2023-06-14T05:44:05;10.35;;;4.50;;
46158;SDS011;31888;44.512;26.104;2023-06-14T05:46:30;15.82;;;4.10;;
46158;SDS011;31888;44.512;26.104;2023-06-14T05:48:55;12.52;;;4.30;;
46158;SDS011;31888;44.512;26.104;2023-06-14T05:51:20;12.43;;;4.47;;
46158;SDS011;31888;44.512;26.104;2023-06-14T05:53:50;6.10;;;4.35;;
46158;SDS011;31888;44.512;26.104;2023-06-14T05:56:16;9.32;;;3.60;;
46158;SDS011;31888;44.512;26.104;2023-06-14T05:58:42;9.00;;;4.25;;
46158;SDS011;31888;44.512;26.104;2023-06-14T06:01:07;12.32;;;4.30;;
46158;SDS011;31888;44.512;26.104;2023-06-14T06:03:32;14.95;;;4.07;;
46158;SDS011;31888;44.512;26.104;2023-06-14T06:05:57;9.68;;;4.32;;
46158;SDS011;31888;44.512;26.104;2023-06-14T06:08:22;6.15;;;4.28;;
46158;SDS011;31888;44.512;26.104;2023-06-14T06:10:47;7.82;;;4.13;;
46158;SDS011;31888;44.512;26.104;2023-06-14T06:13:13;10.57;;;4.43;;
46158;SDS011;31888;44.512;26.104;2023-06-14T06:15:38;11.70;;;4.40;;
46158;SDS011;31888;44.512;26.104;2023-06-14T06:18:03;9.20;;;4.70;;
46158;SDS011;31888;44.512;26.104;2023-06-14T06:20:29;11.27;;;4.78;;
46158;SDS011;31888;44.512;26.104;2023-06-14T06:22:54;13.45;;;5.00;;
46158;SDS011;31888;44.512;26.104;2023-06-14T06:25:19;6.80;;;5.20;;
46158;SDS011;31888;44.512;26.104;2023-06-14T06:27:45;13.40;;;6.10;;
46158;SDS011;31888;44.512;26.104;2023-06-14T06:30:13;12.82;;;7.00;;
46158;SDS011;31888;44.512;26.104;2023-06-14T06:32:38;13.98;;;6.80;;
46158;SDS011;31888;44.512;26.104;2023-06-14T06:35:05;12.25;;;7.10;;
46158;SDS011;31888;44.512;26.104;2023-06-14T06:37:31;14.75;;;6.75;;
46158;SDS011;31888;44.512;26.104;2023-06-14T06:39:57;11.10;;;6.50;;
46158;SDS011;31888;44.512;26.104;2023-06-14T06:42:22;13.40;;;7.50;;
46158;SDS011;31888;44.512;26.104;2023-06-14T06:44:54;16.95;;;8.23;;
46158;SDS011;31888;44.512;26.104;2023-06-14T06:47:20;13.93;;;8.27;;
46158;SDS011;31888;44.512;26.104;2023-06-14T06:49:45;14.25;;;7.55;;
46158;SDS011;31888;44.512;26.104;2023-06-14T06:52:09;14.52;;;8.50;;
46158;SDS011;31888;44.512;26.104;2023-06-14T06:54:34;19.17;;;9.27;;
46158;SDS011;31888;44.512;26.104;2023-06-14T06:56:59;10.25;;;7.63;;
46158;SDS011;31888;44.512;26.104;2023-06-14T06:59:24;17.23;;;9.10;;
46158;SDS011;31888;44.512;26.104;2023-06-14T07:01:49;13.77;;;8.57;;
46158;SDS011;31888;44.512;26.104;2023-06-14T07:04:19;13.30;;;7.70;;
46158;SDS011;31888;44.512;26.104;2023-06-14T07:06:45;16.73;;;7.93;;
46158;SDS011;31888;44.512;26.104;2023-06-14T07:09:10;13.90;;;8.18;;
46158;SDS011;31888;44.512;26.104;2023-06-14T07:11:37;19.92;;;9.70;;
46158;SDS011;31888;44.512;26.104;2023-06-14T07:14:02;15.25;;;9.60;;
46158;SDS011;31888;44.512;26.104;2023-06-14T07:16:27;19.30;;;9.32;;
46158;SDS011;31888;44.512;26.104;2023-06-14T07:18:52;14.90;;;9.82;;
46158;SDS011;31888;44.512;26.104;2023-06-14T07:21:19;21.63;;;9.02;;
46158;SDS011;31888;44.512;26.104;2023-06-14T07:23:44;12.15;;;8.40;;
46158;SDS011;31888;44.512;26.104;2023-06-14T07:26:10;20.02;;;10.75;;
46158;SDS011;31888;44.512;26.104;2023-06-14T07:28:34;17.48;;;11.13;;
46158;SDS011;31888;44.512;26.104;2023-06-14T07:30:59;15.80;;;9.90;;
46158;SDS011;31888;44.512;26.104;2023-06-14T07:33:24;17.45;;;8.95;;
46158;SDS011;31888;44.512;26.104;2023-06-14T07:35:50;19.83;;;9.82;;
46158;SDS011;31888;44.512;26.104;2023-06-14T07:38:23;14.05;;;8.77;;
46158;SDS011;31888;44.512;26.104;2023-06-14T08:52:53;8.63;;;6.85;;
46158;SDS011;31888;44.512;26.104;2023-06-14T08:57:48;9.35;;;6.97;;
46158;SDS011;31888;44.512;26.104;2023-06-14T09:00:13;12.13;;;6.82;;
46158;SDS011;31888;44.512;26.104;2023-06-14T09:02:39;9.95;;;6.90;;
46158;SDS011;31888;44.512;26.104;2023-06-14T09:05:06;8.38;;;6.43;;
46158;SDS011;31888;44.512;26.104;2023-06-14T09:07:31;11.75;;;6.78;;
46158;SDS011;31888;44.512;26.104;2023-06-14T09:10:06;11.70;;;7.35;;
46158;SDS011;31888;44.512;26.104;2023-06-14T09:12:33;8.60;;;6.68;;
46158;SDS011;31888;44.512;26.104;2023-06-14T09:14:57;11.80;;;6.60;;
46158;SDS011;31888;44.512;26.104;2023-06-14T09:17:24;10.38;;;6.90;;
46158;SDS011;31888;44.512;26.104;2023-06-14T09:19:49;8.85;;;6.55;;
46158;SDS011;31888;44.512;26.104;2023-06-14T09:22:14;10.02;;;6.22;;
46158;SDS011;31888;44.512;26.104;2023-06-14T09:24:41;10.02;;;6.20;;
46158;SDS011;31888;44.512;26.104;2023-06-14T09:27:08;9.73;;;6.53;;
46158;SDS011;31888;44.512;26.104;2023-06-14T09:29:33;12.00;;;7.13;;
46158;SDS011;31888;44.512;26.104;2023-06-14T09:31:57;10.20;;;6.95;;
46158;SDS011;31888;44.512;26.104;2023-06-14T09:34:22;10.10;;;6.22;;
46158;SDS011;31888;44.512;26.104;2023-06-14T09:36:48;13.60;;;6.53;;
46158;SDS011;31888;44.512;26.104;2023-06-14T09:39:16;9.48;;;6.50;;
46158;SDS011;31888;44.512;26.104;2023-06-14T09:41:41;10.45;;;6.15;;
46158;SDS011;31888;44.512;26.104;2023-06-14T09:44:10;9.75;;;6.40;;
46158;SDS011;31888;44.512;26.104;2023-06-14T09:46:43;16.23;;;6.57;;
46158;SDS011;31888;44.512;26.104;2023-06-14T09:49:09;7.53;;;5.97;;
46158;SDS011;31888;44.512;26.104;2023-06-14T09:51:34;11.35;;;7.47;;
46158;SDS011;31888;44.512;26.104;2023-06-14T09:54:12;12.85;;;6.82;;
46158;SDS011;31888;44.512;26.104;2023-06-14T09:56:41;11.73;;;6.40;;
46158;SDS011;31888;44.512;26.104;2023-06-14T09:59:09;8.38;;;6.30;;
46158;SDS011;31888;44.512;26.104;2023-06-14T10:01:39;32.85;;;8.30;;
46158;SDS011;31888;44.512;26.104;2023-06-14T10:04:06;11.55;;;6.30;;
46158;SDS011;31888;44.512;26.104;2023-06-14T10:06:35;10.65;;;6.45;;
46158;SDS011;31888;44.512;26.104;2023-06-14T10:09:03;9.35;;;6.70;;
46158;SDS011;31888;44.512;26.104;2023-06-14T10:11:31;14.13;;;7.38;;
46158;SDS011;31888;44.512;26.104;2023-06-14T10:13:56;9.95;;;6.65;;
46158;SDS011;31888;44.512;26.104;2023-06-14T10:16:27;9.48;;;6.78;;
46158;SDS011;31888;44.512;26.104;2023-06-14T10:18:59;11.20;;;6.85;;
46158;SDS011;31888;44.512;26.104;2023-06-14T10:21:28;8.95;;;6.38;;
46158;SDS011;31888;44.512;26.104;2023-06-14T10:24:03;12.63;;;6.20;;
46158;SDS011;31888;44.512;26.104;2023-06-14T10:26:31;9.05;;;5.97;;
46158;SDS011;31888;44.512;26.104;2023-06-14T10:28:59;9.50;;;5.80;;
46158;SDS011;31888;44.512;26.104;2023-06-14T10:31:43;10.05;;;6.90;;
46158;SDS011;31888;44.512;26.104;2023-06-14T10:34:09;11.18;;;6.05;;
46158;SDS011;31888;44.512;26.104;2023-06-14T10:36:33;12.52;;;6.65;;
46158;SDS011;31888;44.512;26.104;2023-06-14T10:38:59;8.65;;;5.88;;
46158;SDS011;31888;44.512;26.104;2023-06-14T10:41:29;10.30;;;5.95;;
46158;SDS011;31888;44.512;26.104;2023-06-14T10:47:20;11.10;;;4.85;;
46158;SDS011;31888;44.512;26.104;2023-06-14T10:49:51;12.57;;;5.00;;
46158;SDS011;31888;44.512;26.104;2023-06-14T10:52:17;9.43;;;5.30;;
46158;SDS011;31888;44.512;26.104;2023-06-14T10:54:56;10.60;;;5.43;;
46158;SDS011;31888;44.512;26.104;2023-06-14T10:57:26;10.50;;;5.90;;
46158;SDS011;31888;44.512;26.104;2023-06-14T10:59:50;11.15;;;5.97;;
46158;SDS011;31888;44.512;26.104;2023-06-14T11:02:20;7.65;;;5.95;;
46158;SDS011;31888;44.512;26.104;2023-06-14T11:05:09;7.25;;;5.28;;
46158;SDS011;31888;44.512;26.104;2023-06-14T11:07:41;9.20;;;5.70;;
46158;SDS011;31888;44.512;26.104;2023-06-14T11:10:16;9.73;;;5.78;;
46158;SDS011;31888;44.512;26.104;2023-06-14T11:12:54;7.32;;;5.68;;
46158;SDS011;31888;44.512;26.104;2023-06-14T11:15:19;9.13;;;5.78;;
46158;SDS011;31888;44.512;26.104;2023-06-14T11:17:52;8.57;;;6.30;;
46158;SDS011;31888;44.512;26.104;2023-06-14T11:20:24;10.65;;;5.88;;
46158;SDS011;31888;44.512;26.104;2023-06-14T11:22:50;8.80;;;5.40;;
46158;SDS011;31888;44.512;26.104;2023-06-14T11:25:16;7.78;;;5.90;;
46158;SDS011;31888;44.512;26.104;2023-06-14T11:27:41;11.52;;;6.07;;
46158;SDS011;31888;44.512;26.104;2023-06-14T11:30:07;10.68;;;5.80;;
46158;SDS011;31888;44.512;26.104;2023-06-14T11:32:33;12.65;;;5.57;;
46158;SDS011;31888;44.512;26.104;2023-06-14T11:35:00;8.30;;;5.93;;
46158;SDS011;31888;44.512;26.104;2023-06-14T11:37:25;8.15;;;5.30;;
46158;SDS011;31888;44.512;26.104;2023-06-14T11:39:51;10.65;;;5.88;;
46158;SDS011;31888;44.512;26.104;2023-06-14T11:42:16;8.68;;;6.13;;
46158;SDS011;31888;44.512;26.104;2023-06-14T11:44:41;11.50;;;5.82;;
46158;SDS011;31888;44.512;26.104;2023-06-14T11:47:06;9.07;;;5.85;;
46158;SDS011;31888;44.512;26.104;2023-06-14T11:49:34;9.52;;;6.18;;
46158;SDS011;31888;44.512;26.104;2023-06-14T11:52:01;9.75;;;5.72;;
46158;SDS011;31888;44.512;26.104;2023-06-14T11:54:37;14.15;;;6.75;;
46158;SDS011;31888;44.512;26.104;2023-06-14T11:57:17;11.37;;;6.10;;
46158;SDS011;31888;44.512;26.104;2023-06-14T11:59:47;10.20;;;6.00;;
46158;SDS011;31888;44.512;26.104;2023-06-14T12:02:13;12.07;;;5.97;;
46158;SDS011;31888;44.512;26.104;2023-06-14T12:04:46;9.48;;;6.22;;
46158;SDS011;31888;44.512;26.104;2023-06-14T12:07:14;7.57;;;5.88;;
46158;SDS011;31888;44.512;26.104;2023-06-14T12:09:40;10.07;;;6.00;;
46158;SDS011;31888;44.512;26.104;2023-06-14T12:12:07;9.95;;;6.50;;
46158;SDS011;31888;44.512;26.104;2023-06-14T12:14:32;8.10;;;6.00;;
46158;SDS011;31888;44.512;26.104;2023-06-14T12:17:03;12.07;;;6.25;;
46158;SDS011;31888;44.512;26.104;2023-06-14T12:19:30;10.77;;;6.60;;
46158;SDS011;31888;44.512;26.104;2023-06-14T12:21:54;11.18;;;6.80;;
46158;SDS011;31888;44.512;26.104;2023-06-14T12:24:25;9.90;;;6.45;;
46158;SDS011;31888;44.512;26.104;2023-06-14T12:26:53;6.45;;;5.85;;
46158;SDS011;31888;44.512;26.104;2023-06-14T12:29:18;8.32;;;6.20;;
46158;SDS011;31888;44.512;26.104;2023-06-14T12:31:44;12.23;;;6.15;;
46158;SDS011;31888;44.512;26.104;2023-06-14T12:34:08;10.02;;;6.03;;
46158;SDS011;31888;44.512;26.104;2023-06-14T12:36:34;8.57;;;5.55;;
46158;SDS011;31888;44.512;26.104;2023-06-14T12:39:03;7.82;;;6.20;;
46158;SDS011;31888;44.512;26.104;2023-06-14T12:42:14;15.18;;;6.22;;
46158;SDS011;31888;44.512;26.104;2023-06-14T12:44:39;7.75;;;5.55;;
46158;SDS011;31888;44.512;26.104;2023-06-14T12:47:05;11.98;;;6.18;;
46158;SDS011;31888;44.512;26.104;2023-06-14T12:49:41;10.82;;;5.95;;
46158;SDS011;31888;44.512;26.104;2023-06-14T12:52:09;17.05;;;6.22;;
46158;SDS011;31888;44.512;26.104;2023-06-14T12:54:38;12.23;;;6.47;;
46158;SDS011;31888;44.512;26.104;2023-06-14T12:57:03;11.80;;;5.85;;
46158;SDS011;31888;44.512;26.104;2023-06-14T13:02:19;7.20;;;5.18;;
46158;SDS011;31888;44.512;26.104;2023-06-14T13:04:50;7.53;;;6.10;;
46158;SDS011;31888;44.512;26.104;2023-06-14T13:07:29;9.68;;;5.97;;
46158;SDS011;31888;44.512;26.104;2023-06-14T13:09:54;11.30;;;5.97;;
46158;SDS011;31888;44.512;26.104;2023-06-14T13:12:19;8.13;;;5.78;;
46158;SDS011;31888;44.512;26.104;2023-06-14T13:14:54;7.90;;;6.18;;
46158;SDS011;31888;44.512;26.104;2023-06-14T13:17:22;11.25;;;6.53;;
46158;SDS011;31888;44.512;26.104;2023-06-14T13:19:48;14.15;;;5.82;;
46158;SDS011;31888;44.512;26.104;2023-06-14T13:22:21;6.90;;;6.15;;
46158;SDS011;31888;44.512;26.104;2023-06-14T13:24:49;8.32;;;5.40;;
46158;SDS011;31888;44.512;26.104;2023-06-14T13:27:18;11.07;;;5.93;;
46158;SDS011;31888;44.512;26.104;2023-06-14T13:29:46;10.18;;;6.07;;
46158;SDS011;31888;44.512;26.104;2023-06-14T13:32:20;14.02;;;6.07;;
46158;SDS011;31888;44.512;26.104;2023-06-14T13:34:47;8.73;;;5.53;;
46158;SDS011;31888;44.512;26.104;2023-06-14T13:37:18;8.10;;;5.88;;
46158;SDS011;31888;44.512;26.104;2023-06-14T13:39:49;9.90;;;5.85;;
46158;SDS011;31888;44.512;26.104;2023-06-14T13:42:17;8.40;;;5.90;;
46158;SDS011;31888;44.512;26.104;2023-06-14T13:44:46;7.95;;;6.05;;
46158;SDS011;31888;44.512;26.104;2023-06-14T13:47:22;16.60;;;6.57;;
46158;SDS011;31888;44.512;26.104;2023-06-14T13:49:46;8.90;;;5.97;;
46158;SDS011;31888;44.512;26.104;2023-06-14T13:52:11;8.57;;;6.15;;
46158;SDS011;31888;44.512;26.104;2023-06-14T13:54:45;7.53;;;5.93;;
46158;SDS011;31888;44.512;26.104;2023-06-14T13:57:11;11.93;;;5.82;;
46158;SDS011;31888;44.512;26.104;2023-06-14T13:59:42;9.93;;;6.05;;
46158;SDS011;31888;44.512;26.104;2023-06-14T14:02:08;8.45;;;5.85;;
46158;SDS011;31888;44.512;26.104;2023-06-14T14:04:38;9.57;;;5.75;;
46158;SDS011;31888;44.512;26.104;2023-06-14T14:07:09;7.57;;;5.50;;
46158;SDS011;31888;44.512;26.104;2023-06-14T14:09:41;11.32;;;6.15;;
46158;SDS011;31888;44.512;26.104;2023-06-14T14:12:14;8.80;;;5.57;;
46158;SDS011;31888;44.512;26.104;2023-06-14T14:14:51;7.53;;;5.78;;
46158;SDS011;31888;44.512;26.104;2023-06-14T14:17:16;8.18;;;5.90;;
46158;SDS011;31888;44.512;26.104;2023-06-14T14:19:45;19.20;;;6.45;;
46158;SDS011;31888;44.512;26.104;2023-06-14T14:22:10;8.27;;;5.20;;
46158;SDS011;31888;44.512;26.104;2023-06-14T14:24:35;7.65;;;4.85;;
46158;SDS011;31888;44.512;26.104;2023-06-14T14:27:01;5.88;;;5.13;;
46158;SDS011;31888;44.512;26.104;2023-06-14T14:29:27;9.05;;;5.80;;
46158;SDS011;31888;44.512;26.104;2023-06-14T14:31:52;8.00;;;5.03;;
46158;SDS011;31888;44.512;26.104;2023-06-14T14:34:17;11.38;;;5.68;;
46158;SDS011;31888;44.512;26.104;2023-06-14T14:36:44;8.25;;;5.10;;
46158;SDS011;31888;44.512;26.104;2023-06-14T14:39:16;7.75;;;5.30;;
46158;SDS011;31888;44.512;26.104;2023-06-14T14:41:40;9.60;;;5.45;;
46158;SDS011;31888;44.512;26.104;2023-06-14T14:44:06;12.65;;;5.82;;
46158;SDS011;31888;44.512;26.104;2023-06-14T14:46:30;11.40;;;6.00;;
46158;SDS011;31888;44.512;26.104;2023-06-14T14:48:55;13.43;;;6.00;;
46158;SDS011;31888;44.512;26.104;2023-06-14T14:51:20;7.55;;;5.10;;
46158;SDS011;31888;44.512;26.104;2023-06-14T14:53:47;8.30;;;5.70;;
46158;SDS011;31888;44.512;26.104;2023-06-14T14:56:12;7.70;;;5.40;;
46158;SDS011;31888;44.512;26.104;2023-06-14T14:58:37;7.60;;;5.25;;
46158;SDS011;31888;44.512;26.104;2023-06-14T15:01:02;7.70;;;5.35;;
46158;SDS011;31888;44.512;26.104;2023-06-14T15:03:28;6.63;;;5.13;;
46158;SDS011;31888;44.512;26.104;2023-06-14T15:06:04;9.60;;;5.80;;
46158;SDS011;31888;44.512;26.104;2023-06-14T15:08:29;7.78;;;5.88;;
46158;SDS011;31888;44.512;26.104;2023-06-14T15:10:55;11.13;;;5.85;;
46158;SDS011;31888;44.512;26.104;2023-06-14T15:13:20;8.75;;;5.93;;
46158;SDS011;31888;44.512;26.104;2023-06-14T15:15:45;11.63;;;6.00;;
46158;SDS011;31888;44.512;26.104;2023-06-14T15:18:10;11.55;;;5.32;;
46158;SDS011;31888;44.512;26.104;2023-06-14T15:20:36;7.90;;;5.40;;
46158;SDS011;31888;44.512;26.104;2023-06-14T15:23:01;8.77;;;5.30;;
46158;SDS011;31888;44.512;26.104;2023-06-14T15:25:26;11.13;;;5.72;;
46158;SDS011;31888;44.512;26.104;2023-06-14T15:27:53;10.43;;;5.55;;
46158;SDS011;31888;44.512;26.104;2023-06-14T15:30:18;9.45;;;5.13;;
46158;SDS011;31888;44.512;26.104;2023-06-14T15:32:43;9.25;;;5.43;;
46158;SDS011;31888;44.512;26.104;2023-06-14T15:35:08;8.75;;;5.10;;
46158;SDS011;31888;44.512;26.104;2023-06-14T15:37:33;12.90;;;5.22;;
46158;SDS011;31888;44.512;26.104;2023-06-14T15:39:58;12.93;;;5.78;;
46158;SDS011;31888;44.512;26.104;2023-06-14T15:42:25;26.40;;;7.45;;
46158;SDS011;31888;44.512;26.104;2023-06-14T15:44:51;10.38;;;5.63;;
46158;SDS011;31888;44.512;26.104;2023-06-14T15:47:16;7.32;;;5.75;;
46158;SDS011;31888;44.512;26.104;2023-06-14T15:49:56;11.68;;;5.40;;